Time;durP1;ratioP1;P1;durP2;ratioP2;P2;SDS_P1;SDS_P2;PMS_P1;PMS_P2;Temp;Humidity;BMP_temperature;BMP_pressure;BME280_temperature;BME280_humidity;BME280_pressure;Samples;Min_cycle;Max_cycle;Signal;HPM_P1;HPM_P2
2023/02/03 00:01:39;;;;;;;7.50;3.70;;;;;;;1.69;81.99;99124.33;79237;1300;3013562;-66
2023/02/03 00:04:07;;;;;;;7.20;3.60;;;;;;;1.59;82.20;99123.75;79335;1295;3011715;-66
2023/02/03 00:06:35;;;;;;;6.10;3.00;;;;;;;1.40;82.58;99121.36;78144;1297;3049871;-64
2023/02/03 00:09:02;;;;;;;6.20;3.50;;;;;;;1.13;83.21;99119.88;79360;1300;3018835;-67
2023/02/03 00:11:29;;;;;;;8.90;3.70;;;;;;;0.92;85.02;99122.68;79388;1300;3011682;-64
2023/02/03 00:13:57;;;;;;;6.70;3.50;;;;;;;0.82;85.56;99124.84;78019;1300;3025888;-64
2023/02/03 00:16:24;;;;;;;7.90;4.10;;;;;;;0.70;86.02;99124.29;79369;1300;3013842;-66
2023/02/03 00:18:50;;;;;;;7.50;2.60;;;;;;;0.54;86.52;99126.60;79165;1299;3011633;-65
2023/02/03 00:21:19;;;;;;;4.60;2.20;;;;;;;0.96;86.38;99129.45;78090;1299;3049199;-63
2023/02/03 00:23:45;;;;;;;7.10;2.60;;;;;;;1.66;83.63;99125.97;79260;1296;3018698;-64
2023/02/03 00:26:13;;;;;;;7.30;3.40;;;;;;;1.65;82.30;99128.41;79244;1296;3013938;-64
2023/02/03 00:28:42;;;;;;;6.40;3.40;;;;;;;1.46;83.02;99135.88;78121;1299;3052245;-64
2023/02/03 00:31:16;;;;;;;6.60;3.60;;;;;;;1.24;83.27;99130.61;79239;1299;3012985;-64
2023/02/03 00:33:44;;;;;;;10.10;3.70;;;;;;;1.02;84.16;99135.70;78154;1297;3058107;-64
2023/02/03 00:36:11;;;;;;;7.00;3.30;;;;;;;0.95;84.42;99131.23;79234;1297;3012944;-63
2023/02/03 00:38:37;;;;;;;7.70;3.10;;;;;;;0.68;85.49;99135.70;79228;1296;3013686;-62
2023/02/03 00:41:06;;;;;;;6.50;3.20;;;;;;;0.62;85.94;99131.38;78241;1300;3026797;-63
2023/02/03 00:43:32;;;;;;;7.20;3.50;;;;;;;0.44;86.72;99133.37;79238;1299;3013096;-63
2023/02/03 00:45:59;;;;;;;4.90;2.20;;;;;;;0.39;87.40;99131.11;79239;1300;3011539;-64
2023/02/03 00:48:27;;;;;;;3.40;1.90;;;;;;;0.87;86.65;99131.09;78038;1300;3027973;-65
2023/02/03 00:50:53;;;;;;;4.70;2.10;;;;;;;1.32;84.17;99136.09;79297;1298;3013755;-66
2023/02/03 00:53:20;;;;;;;5.00;2.70;;;;;;;1.29;83.54;99130.85;79257;1297;3013069;-63
2023/02/03 00:55:48;;;;;;;5.30;2.70;;;;;;;1.05;84.31;99133.38;78021;1300;3029602;-63
2023/02/03 00:58:14;;;;;;;4.40;2.60;;;;;;;0.99;84.87;99134.06;79256;1299;3014092;-63
2023/02/03 01:00:41;;;;;;;5.80;3.20;;;;;;;0.87;84.80;99136.94;79333;1299;3013150;-63
2023/02/03 01:03:09;;;;;;;5.20;2.20;;;;;;;0.74;85.88;99135.92;78018;1297;3028615;-64
2023/02/03 01:05:36;;;;;;;6.70;2.50;;;;;;;0.65;86.23;99137.02;79255;1295;3019180;-66
2023/02/03 01:08:02;;;;;;;7.10;3.00;;;;;;;0.53;86.98;99138.70;79253;1298;3011646;-64
2023/02/03 01:10:31;;;;;;;6.50;2.50;;;;;;;0.49;87.27;99138.26;78048;1299;3026277;-65
2023/02/03 01:12:58;;;;;;;4.00;1.80;;;;;;;0.91;86.76;99147.19;79333;1299;3013860;-62
2023/02/03 01:15:29;;;;;;;4.70;2.70;;;;;;;1.48;84.33;99143.40;78807;1298;3011540;-65
2023/02/03 01:17:56;;;;;;;7.40;3.30;;;;;;;1.48;82.85;99142.38;79273;1297;3013473;-64
2023/02/03 01:20:23;;;;;;;6.60;4.00;;;;;;;1.14;84.14;99144.53;79204;1296;3012963;-63
2023/02/03 01:22:52;;;;;;;9.50;4.20;;;;;;;1.00;84.63;99142.50;78084;1300;3052977;-62
2023/02/03 01:25:19;;;;;;;7.70;4.10;;;;;;;0.97;85.48;99144.29;79249;1300;3019238;-66
2023/02/03 01:27:46;;;;;;;8.30;4.40;;;;;;;0.73;86.16;99140.09;79318;1300;3013326;-64
2023/02/03 01:30:14;;;;;;;11.90;5.20;;;;;;;0.87;86.63;99137.82;78223;1299;3028749;-64
2023/02/03 01:32:41;;;;;;;11.90;5.10;;;;;;;0.76;86.40;99141.02;79299;1297;3013164;-64
2023/02/03 01:35:08;;;;;;;8.20;4.00;;;;;;;0.69;87.07;99138.10;79286;1297;3011785;-64
2023/02/03 01:37:36;;;;;;;11.40;4.10;;;;;;;1.00;86.87;99140.23;78046;1300;3028365;-62
2023/02/03 01:40:03;;;;;;;9.80;3.80;;;;;;;1.54;85.05;99139.42;79362;1300;3011606;-64
2023/02/03 01:42:32;;;;;;;13.00;5.20;;;;;;;1.60;84.13;99138.39;79375;1299;3011292;-65
2023/02/03 01:45:00;;;;;;;13.30;5.70;;;;;;;1.47;83.94;99141.71;78162;1300;3068959;-65
2023/02/03 01:47:31;;;;;;;11.40;5.50;;;;;;;1.43;84.68;99141.31;79219;1300;3019586;-65
2023/02/03 01:50:02;;;;;;;12.90;5.80;;;;;;;1.32;84.87;99142.30;78095;1298;3049024;-63
2023/02/03 01:52:29;;;;;;;10.90;3.90;;;;;;;1.09;85.26;99141.36;79354;1296;3011682;-63
2023/02/03 01:54:59;;;;;;;8.40;4.60;;;;;;;0.98;86.14;99140.80;78701;1301;3011652;-65
2023/02/03 01:57:32;;;;;;;11.50;4.60;;;;;;;0.95;86.32;99143.45;79374;1300;3013422;-64
2023/02/03 02:00:01;;;;;;;11.20;5.10;;;;;;;0.96;86.94;99143.80;78017;1299;3069886;-67
2023/02/03 02:02:27;;;;;;;8.60;3.60;;;;;;;0.95;87.35;99145.19;79311;1294;3020577;-64
2023/02/03 02:05:00;;;;;;;11.70;4.30;;;;;;;1.44;85.98;99140.59;79426;1298;3011779;-64
2023/02/03 02:07:28;;;;;;;14.50;5.30;;;;;;;1.79;83.97;99141.46;78168;1294;3052602;-64
2023/02/03 02:09:55;;;;;;;10.00;4.80;;;;;;;1.78;83.74;99142.19;79346;1300;3012986;-67
2023/02/03 02:12:22;;;;;;;11.80;5.10;;;;;;;1.73;83.69;99144.92;79445;1298;3011677;-65
2023/02/03 02:14:50;;;;;;;13.60;5.40;;;;;;;1.65;83.88;99144.48;78125;1295;3028684;-65
2023/02/03 02:17:28;;;;;;;14.60;5.80;;;;;;;1.53;84.37;99151.39;79347;1297;3013668;-66
2023/02/03 02:20:05;;;;;;;12.60;5.10;;;;;;;1.26;85.37;99146.09;78153;1299;3049833;-65
2023/02/03 02:22:39;;;;;;;16.10;5.80;;;;;;;1.22;86.21;99146.89;78261;1298;3052824;-66
2023/02/03 02:25:27;;;;;;;10.50;4.00;;;;;;;0.95;86.97;99146.05;79323;1299;3011954;-66
2023/02/03 02:28:23;;;;;;;9.00;4.20;;;;;;;0.94;87.74;99144.73;78230;1300;3052498;-65
2023/02/03 02:31:15;;;;;;;5.40;2.30;;;;;;;0.99;88.41;99138.37;78134;1299;3053244;-64
2023/02/03 02:34:29;;;;;;;4.90;2.40;;;;;;;1.72;86.70;99141.64;78128;1300;3069486;-65
2023/02/03 02:37:18;;;;;;;15.60;4.60;;;;;;;2.26;84.13;99135.38;78206;1294;3052113;-66
2023/02/03 02:39:54;;;;;;;11.80;4.60;;;;;;;2.33;83.56;99131.50;78124;1300;3056111;-63
2023/02/03 02:42:32;;;;;;;11.50;5.00;;;;;;;2.16;83.34;99135.33;78052;1299;3049196;-69
2023/02/03 02:45:25;;;;;;;11.00;4.30;;;;;;;1.96;84.15;99136.80;78051;1297;3052914;-63
2023/02/03 02:47:58;;;;;;;8.40;4.40;;;;;;;1.39;85.39;99147.09;78027;1298;3050616;-63
2023/02/03 02:50:27;;;;;;;11.20;4.80;;;;;;;1.20;86.28;99142.47;79317;1295;3013453;-66
2023/02/03 02:52:55;;;;;;;11.70;4.50;;;;;;;1.11;86.43;99143.23;78087;1300;3051646;-65
2023/02/03 02:55:23;;;;;;;9.10;4.50;;;;;;;0.90;86.28;99147.05;79387;1300;3013459;-65
2023/02/03 02:57:52;;;;;;;7.20;2.90;;;;;;;0.79;86.71;99145.95;79418;1294;3012990;-62
2023/02/03 03:00:20;;;;;;;5.10;2.70;;;;;;;1.34;85.48;99143.10;78020;1295;3050298;-65
2023/02/03 03:02:50;;;;;;;7.10;3.60;;;;;;;1.50;83.20;99143.69;79296;1294;3011600;-67
2023/02/03 03:05:19;;;;;;;7.30;3.50;;;;;;;1.62;82.08;99141.45;78316;1298;3025660;-65
2023/02/03 03:07:50;;;;;;;7.30;3.80;;;;;;;1.55;81.77;99144.57;79493;1297;3013680;-65
2023/02/03 03:10:22;;;;;;;7.50;4.60;;;;;;;1.15;82.69;99143.96;78119;1300;3053062;-66
2023/02/03 03:12:52;;;;;;;9.20;4.50;;;;;;;1.05;83.64;99140.78;79267;1300;3011649;-65
2023/02/03 03:15:23;;;;;;;7.90;4.70;;;;;;;0.93;84.30;99138.52;78013;1300;3050927;-64
2023/02/03 03:18:14;;;;;;;9.20;5.00;;;;;;;0.82;84.77;99142.42;79147;1300;3012947;-63
2023/02/03 03:20:45;;;;;;;10.70;5.00;;;;;;;0.80;84.77;99141.80;78014;1298;3049678;-65
2023/02/03 03:23:38;;;;;;;11.10;5.30;;;;;;;0.77;84.90;99138.25;79259;1294;3012914;-62
2023/02/03 03:26:22;;;;;;;14.20;5.20;;;;;;;0.61;85.39;99142.98;78209;1300;3052443;-64
2023/02/03 03:29:20;;;;;;;6.10;3.90;;;;;;;0.51;86.13;99136.15;78069;1300;3054308;-63
2023/02/03 03:31:48;;;;;;;9.00;3.60;;;;;;;1.28;84.68;99142.05;77893;1298;3069882;-63
2023/02/03 03:34:15;;;;;;;9.10;3.70;;;;;;;1.76;81.62;99138.79;79243;1297;3021353;-65
2023/02/03 03:36:51;;;;;;;8.10;4.10;;;;;;;1.83;80.79;99132.88;79175;1300;3012980;-64
2023/02/03 03:39:28;;;;;;;8.80;4.70;;;;;;;1.57;81.47;99142.63;78101;1295;3053989;-65
2023/02/03 03:42:06;;;;;;;9.70;4.60;;;;;;;1.28;82.53;99144.30;78025;1299;3050507;-64
2023/02/03 03:44:38;;;;;;;6.80;3.90;;;;;;;1.22;83.35;99146.54;78195;1298;3052857;-63
2023/02/03 03:47:11;;;;;;;8.60;4.60;;;;;;;1.10;84.37;99147.39;79298;1300;3013229;-68
2023/02/03 03:49:40;;;;;;;8.80;4.40;;;;;;;0.75;85.64;99148.48;78085;1297;3069188;-65
2023/02/03 03:52:08;;;;;;;9.20;4.10;;;;;;;0.65;87.08;99149.41;79211;1294;3013248;-64
2023/02/03 03:54:35;;;;;;;7.50;4.10;;;;;;;0.32;88.72;99151.08;79331;1298;3013021;-65
2023/02/03 03:57:17;;;;;;;9.00;3.50;;;;;;;0.19;90.01;99154.84;77976;1302;3026589;-63
2023/02/03 03:59:46;;;;;;;6.50;2.60;;;;;;;0.81;89.04;99152.95;78005;1299;3050088;-63
2023/02/03 04:02:13;;;;;;;6.70;4.00;;;;;;;1.32;86.63;99152.14;79340;1298;3013409;-65
2023/02/03 04:04:40;;;;;;;7.80;4.00;;;;;;;1.05;86.35;99148.73;79259;1300;3011625;-68
2023/02/03 04:07:08;;;;;;;8.30;4.10;;;;;;;0.80;87.02;99151.98;77923;1302;3051689;-63
2023/02/03 04:09:36;;;;;;;9.70;4.10;;;;;;;0.68;87.69;99150.38;79325;1300;3014142;-67
2023/02/03 04:12:05;;;;;;;8.50;3.90;;;;;;;0.55;88.43;99151.20;79161;1294;3011673;-66
2023/02/03 04:14:34;;;;;;;8.40;4.60;;;;;;;0.38;88.65;99144.40;78078;1297;3048412;-63
2023/02/03 04:17:01;;;;;;;6.30;3.30;;;;;;;0.40;89.25;99149.35;79320;1299;3011648;-65
2023/02/03 04:19:28;;;;;;;6.80;3.50;;;;;;;0.39;89.29;99148.70;79490;1295;3011850;-62
2023/02/03 04:21:59;;;;;;;4.40;2.70;;;;;;;0.32;89.65;99151.25;78028;1300;3051115;-63
2023/02/03 04:24:26;;;;;;;4.30;2.30;;;;;;;0.71;88.59;99153.93;79265;1298;3013899;-66
2023/02/03 04:26:54;;;;;;;4.30;2.40;;;;;;;1.00;86.69;99157.48;79364;1295;3011652;-64
2023/02/03 04:29:21;;;;;;;4.40;2.70;;;;;;;1.12;86.36;99160.63;78235;1299;3049926;-64
2023/02/03 04:31:49;;;;;;;5.70;3.00;;;;;;;0.93;86.16;99158.70;79311;1298;3013889;-66
2023/02/03 04:34:15;;;;;;;4.90;2.90;;;;;;;0.62;86.71;99154.98;79585;1298;3013514;-65
2023/02/03 04:36:43;;;;;;;4.00;2.90;;;;;;;0.45;88.13;99162.49;78111;1294;3050404;-66
2023/02/03 04:39:09;;;;;;;6.90;3.50;;;;;;;0.42;88.68;99162.38;79294;1298;3013136;-65
2023/02/03 04:41:38;;;;;;;5.20;3.30;;;;;;;0.33;88.78;99163.11;79476;1298;3011652;-65
2023/02/03 04:44:06;;;;;;;7.00;3.90;;;;;;;0.25;89.33;99161.77;77998;1299;3050427;-62
2023/02/03 04:46:34;;;;;;;3.80;2.70;;;;;;;0.19;89.94;99165.34;79300;1300;3020696;-67
2023/02/03 04:49:00;;;;;;;6.40;3.10;;;;;;;0.64;89.25;99164.77;79418;1300;3011514;-62
2023/02/03 04:51:28;;;;;;;4.90;2.70;;;;;;;0.73;87.68;99172.33;78248;1294;3051469;-63
2023/02/03 04:53:56;;;;;;;6.00;3.30;;;;;;;1.00;87.09;99169.91;79451;1296;3015310;-65
2023/02/03 04:56:22;;;;;;;5.40;3.30;;;;;;;0.71;86.99;99170.13;79537;1297;3011633;-64
2023/02/03 04:58:50;;;;;;;4.80;3.40;;;;;;;0.46;87.95;99176.24;78145;1299;3049321;-65
2023/02/03 05:01:16;;;;;;;6.60;3.60;;;;;;;0.34;89.21;99178.27;79403;1298;3013265;-66
2023/02/03 05:03:43;;;;;;;7.70;4.10;;;;;;;0.17;90.02;99180.38;79572;1296;3012965;-65
2023/02/03 05:06:11;;;;;;;7.20;3.80;;;;;;;0.25;90.30;99185.88;78500;1298;3025573;-65
2023/02/03 05:08:39;;;;;;;7.50;4.30;;;;;;;0.25;90.11;99186.90;79369;1295;3013123;-66
2023/02/03 05:11:05;;;;;;;5.60;3.20;;;;;;;0.19;90.62;99183.60;79395;1294;3012183;-64
2023/02/03 05:13:34;;;;;;;4.80;2.90;;;;;;;0.58;89.91;99186.45;78326;1298;3048362;-66
2023/02/03 05:16:01;;;;;;;5.90;3.60;;;;;;;1.15;87.94;99192.45;79450;1300;3020302;-62
2023/02/03 05:18:28;;;;;;;6.80;4.00;;;;;;;1.01;86.82;99194.37;79283;1299;3013038;-65
2023/02/03 05:20:56;;;;;;;6.30;3.80;;;;;;;0.87;87.23;99195.77;78367;1294;3025970;-65
2023/02/03 05:23:22;;;;;;;6.30;4.00;;;;;;;0.62;87.99;99197.42;79392;1294;3012956;-64
2023/02/03 05:25:49;;;;;;;5.60;3.60;;;;;;;0.35;89.27;99197.36;79398;1294;3013654;-64
2023/02/03 05:28:17;;;;;;;7.80;3.60;;;;;;;0.19;89.95;99197.05;78158;1298;3028398;-65
2023/02/03 05:30:43;;;;;;;6.40;3.50;;;;;;;-0.06;91.04;99200.34;79416;1300;3018571;-63
2023/02/03 05:33:10;;;;;;;4.10;2.30;;;;;;;-0.19;92.91;99206.30;79331;1300;3011377;-64
2023/02/03 05:35:38;;;;;;;4.30;2.50;;;;;;;0.30;91.79;99206.94;78107;1299;3026548;-64
2023/02/03 05:38:04;;;;;;;4.10;2.10;;;;;;;0.56;89.99;99212.56;79510;1295;3013789;-64
2023/02/03 05:43:19;;;;;;;5.20;3.00;;;;;;;0.71;88.13;99212.89;78095;1299;3052779;-64
2023/02/03 05:45:46;;;;;;;4.40;2.80;;;;;;;0.44;88.73;99209.91;79522;1299;3013547;-64
2023/02/03 05:48:13;;;;;;;6.10;3.20;;;;;;;0.12;89.44;99217.17;79556;1299;3011665;-64
2023/02/03 05:50:41;;;;;;;5.10;2.90;;;;;;;0.03;90.76;99219.27;78334;1295;3026675;-65
2023/02/03 05:53:08;;;;;;;4.80;2.60;;;;;;;-0.06;91.22;99221.17;79417;1294;3013299;-64
2023/02/03 05:55:36;;;;;;;4.90;2.00;;;;;;;-0.03;92.22;99224.90;79266;1295;3011968;-64
2023/02/03 05:58:04;;;;;;;4.60;1.90;;;;;;;0.33;91.24;99222.39;78089;1299;3048840;-67
2023/02/03 06:00:31;;;;;;;4.60;2.30;;;;;;;0.87;89.80;99219.73;79302;1300;3012805;-64
2023/02/03 06:02:58;;;;;;;3.80;2.20;;;;;;;0.75;88.50;99222.96;79438;1300;3011904;-66
2023/02/03 06:05:26;;;;;;;5.80;2.70;;;;;;;0.57;89.60;99223.22;78013;1294;3053476;-63
2023/02/03 06:07:53;;;;;;;5.50;2.90;;;;;;;0.45;90.04;99221.60;79112;1298;3013453;-66
2023/02/03 06:10:19;;;;;;;5.90;3.10;;;;;;;0.21;91.19;99224.55;79430;1298;3011764;-64
2023/02/03 06:12:48;;;;;;;3.70;2.50;;;;;;;0.07;93.19;99229.34;77884;1299;3049323;-64
2023/02/03 06:15:15;;;;;;;2.40;1.50;;;;;;;0.09;94.77;99224.46;79279;1300;3013246;-64
2023/02/03 06:17:44;;;;;;;3.50;1.90;;;;;;;0.51;92.88;99224.20;79400;1299;3011436;-64
2023/02/03 06:20:13;;;;;;;3.50;2.10;;;;;;;1.13;90.28;99228.39;78208;1295;3051454;-65
2023/02/03 06:22:40;;;;;;;5.40;2.90;;;;;;;1.05;89.72;99226.19;79614;1294;3014156;-67
2023/02/03 06:25:07;;;;;;;6.90;3.40;;;;;;;1.00;89.60;99227.86;79454;1294;3011917;-65
2023/02/03 06:27:35;;;;;;;6.40;4.10;;;;;;;0.82;90.31;99226.73;78201;1295;3050153;-65
2023/02/03 06:30:02;;;;;;;7.40;4.10;;;;;;;0.75;90.56;99225.89;79665;1299;3019132;-65
2023/02/03 06:32:29;;;;;;;7.20;4.60;;;;;;;0.59;91.18;99232.82;79536;1299;3011719;-67
2023/02/03 06:34:59;;;;;;;4.10;2.60;;;;;;;0.37;92.54;99234.02;78329;1299;3051781;-66
2023/02/03 06:37:26;;;;;;;7.80;2.60;;;;;;;0.90;91.43;99226.19;79305;1295;3014073;-68
2023/02/03 06:39:53;;;;;;;8.50;4.60;;;;;;;0.97;89.36;99236.89;79243;1294;3011768;-67
2023/02/03 06:42:21;;;;;;;6.90;4.20;;;;;;;0.80;89.28;99237.99;78273;1299;3050339;-66
2023/02/03 06:44:47;;;;;;;10.20;5.10;;;;;;;0.68;89.08;99234.50;79531;1300;3012894;-68
2023/02/03 06:47:14;;;;;;;7.90;5.00;;;;;;;0.58;89.51;99241.63;79395;1300;3012793;-66
2023/02/03 06:49:43;;;;;;;9.70;5.70;;;;;;;0.18;90.16;99249.25;78366;1294;3050493;-66
2023/02/03 06:52:09;;;;;;;9.40;4.70;;;;;;;0.02;91.22;99249.59;79457;1297;3013396;-64
2023/02/03 06:54:37;;;;;;;8.20;4.60;;;;;;;0.06;91.46;99248.98;79249;1298;3012305;-64
2023/02/03 06:57:04;;;;;;;4.60;3.10;;;;;;;0.09;91.75;99252.54;78309;1299;3028266;-65
2023/02/03 06:59:31;;;;;;;4.80;2.90;;;;;;;0.47;91.18;99250.33;79585;1298;3018781;-69
2023/02/03 07:01:57;;;;;;;5.60;3.20;;;;;;;0.71;89.45;99249.45;79561;1299;3012087;-65
2023/02/03 07:04:29;;;;;;;6.30;3.70;;;;;;;0.83;88.70;99250.88;78309;1298;3026209;-64
2023/02/03 07:06:56;;;;;;;6.40;3.80;;;;;;;0.81;88.61;99251.08;79592;1295;3011697;-65
2023/02/03 07:09:24;;;;;;;5.30;3.50;;;;;;;0.59;89.62;99249.17;78193;1298;3027323;-66
2023/02/03 07:11:51;;;;;;;6.10;4.20;;;;;;;0.46;90.24;99250.70;79556;1299;3013637;-64
2023/02/03 07:14:17;;;;;;;8.50;4.70;;;;;;;0.29;91.70;99258.81;79387;1300;3011232;-66
2023/02/03 07:16:46;;;;;;;5.00;2.60;;;;;;;0.46;92.17;99247.58;78203;1300;3026097;-65
2023/02/03 07:19:12;;;;;;;6.50;3.10;;;;;;;0.77;90.97;99243.05;79457;1295;3014743;-63
2023/02/03 07:21:38;;;;;;;8.00;3.90;;;;;;;1.19;88.90;99245.48;79379;1298;3012155;-69
2023/02/03 07:24:06;;;;;;;7.50;4.50;;;;;;;1.43;87.51;99244.70;78301;1298;3027912;-71
2023/02/03 07:26:33;;;;;;;9.50;4.90;;;;;;;1.40;86.61;99250.46;79535;1300;3014012;-69
2023/02/03 07:29:00;;;;;;;9.10;5.00;;;;;;;1.13;86.88;99246.17;79537;1298;3012040;-74
2023/02/03 07:31:28;;;;;;;14.10;5.70;;;;;;;0.95;87.17;99248.16;78321;1294;3051786;-66
2023/02/03 07:33:55;;;;;;;10.00;6.00;;;;;;;0.96;87.46;99246.92;79397;1300;3012854;-67
2023/02/03 07:36:23;;;;;;;12.80;6.40;;;;;;;0.90;87.86;99243.81;79506;1298;3011574;-64
2023/02/03 07:38:51;;;;;;;6.80;3.70;;;;;;;0.95;88.03;99241.78;78182;1297;3049240;-67
2023/02/03 07:41:18;;;;;;;7.70;2.80;;;;;;;1.22;86.59;99239.73;79652;1295;3012951;-68
2023/02/03 07:43:45;;;;;;;6.40;3.70;;;;;;;1.78;84.10;99237.50;79487;1295;3011842;-66
2023/02/03 07:46:13;;;;;;;8.50;4.10;;;;;;;1.76;83.30;99234.13;78399;1300;3051729;-66
2023/02/03 07:48:40;;;;;;;8.00;4.20;;;;;;;1.96;82.55;99233.38;79596;1297;3013374;-66
2023/02/03 07:51:06;;;;;;;8.00;4.40;;;;;;;1.59;82.93;99237.37;80159;1299;3013117;-67
2023/02/03 07:53:34;;;;;;;8.70;4.80;;;;;;;1.42;83.80;99234.17;79080;1294;3049605;-69
2023/02/03 07:56:02;;;;;;;15.50;6.70;;;;;;;1.37;84.45;99234.33;79310;1295;3019584;-68
2023/02/03 07:58:29;;;;;;;17.40;7.70;;;;;;;1.36;84.89;99231.94;79636;1294;3011643;-69
2023/02/03 08:00:57;;;;;;;12.80;6.30;;;;;;;1.30;84.78;99229.67;78260;1300;3051370;-67
2023/02/03 08:03:24;;;;;;;12.60;6.00;;;;;;;1.36;84.83;99234.35;79412;1296;3013704;-70
2023/02/03 08:05:52;;;;;;;9.90;4.90;;;;;;;1.32;85.42;99234.11;79526;1298;3013188;-67
2023/02/03 08:08:20;;;;;;;11.40;4.30;;;;;;;1.79;84.60;99235.59;78278;1300;3049169;-64
2023/02/03 08:10:46;;;;;;;10.90;4.70;;;;;;;2.41;81.58;99234.29;79488;1301;3013614;-67
2023/02/03 08:13:13;;;;;;;10.60;4.20;;;;;;;2.65;80.56;99228.87;77877;1300;3012921;-68
2023/02/03 08:15:41;;;;;;;7.70;4.70;;;;;;;2.73;79.00;99229.80;78264;1300;3027005;-70
2023/02/03 08:18:08;;;;;;;9.00;5.00;;;;;;;2.37;79.97;99230.08;79531;1298;3011488;-67
2023/02/03 08:20:35;;;;;;;8.90;4.70;;;;;;;2.28;80.56;99231.39;79486;1296;3011882;-67
2023/02/03 08:23:03;;;;;;;6.80;4.10;;;;;;;2.36;80.65;99225.96;78095;1296;3050016;-68
2023/02/03 08:25:29;;;;;;;7.50;4.10;;;;;;;2.31;80.74;99231.66;79521;1294;3012987;-66
2023/02/03 08:27:57;;;;;;;6.90;4.70;;;;;;;2.30;80.09;99229.76;79240;1296;3013446;-68
2023/02/03 08:30:25;;;;;;;7.70;4.50;;;;;;;2.26;80.28;99235.77;78330;1300;3052694;-65
2023/02/03 08:32:51;;;;;;;7.40;4.70;;;;;;;2.21;80.95;99237.81;79394;1297;3019062;-70
2023/02/03 08:35:18;;;;;;;8.70;4.90;;;;;;;2.12;80.53;99238.80;79450;1308;3011934;-67
2023/02/03 08:37:45;;;;;;;9.10;4.90;;;;;;;1.85;80.63;99236.80;78271;1299;3026723;-66
2023/02/03 08:40:12;;;;;;;8.50;4.30;;;;;;;1.69;81.41;99238.48;79570;1300;3015386;-64
2023/02/03 08:42:38;;;;;;;4.40;3.20;;;;;;;1.65;81.82;99238.58;79447;1299;3011521;-67
2023/02/03 08:45:07;;;;;;;4.40;2.80;;;;;;;2.20;80.77;99232.52;78272;1306;3026371;-66
2023/02/03 08:47:35;;;;;;;6.30;2.90;;;;;;;2.85;77.95;99224.59;79248;1296;3014504;-72
2023/02/03 08:50:04;;;;;;;4.60;3.10;;;;;;;2.79;76.28;99221.86;79497;1295;3011897;-64
2023/02/03 08:52:32;;;;;;;5.70;3.30;;;;;;;2.43;77.10;99223.51;78085;1300;3049634;-66
2023/02/03 08:54:58;;;;;;;8.30;3.40;;;;;;;2.52;76.65;99218.23;79320;1300;3012966;-66
2023/02/03 08:57:25;;;;;;;8.20;4.40;;;;;;;2.34;76.98;99216.69;79586;1300;3011883;-62
2023/02/03 08:59:53;;;;;;;7.50;5.00;;;;;;;1.84;78.37;99222.67;78420;1298;3028748;-68
2023/02/03 09:02:20;;;;;;;9.20;5.50;;;;;;;1.81;79.24;99220.16;79435;1300;3018789;-64
2023/02/03 09:04:47;;;;;;;6.50;4.70;;;;;;;1.76;79.43;99221.86;79395;1299;3013854;-65
2023/02/03 09:07:15;;;;;;;7.90;4.80;;;;;;;1.89;79.87;99216.65;78358;1298;3049152;-66
2023/02/03 09:09:43;;;;;;;8.70;4.80;;;;;;;2.13;78.88;99213.52;79506;1300;3013094;-64
2023/02/03 09:12:11;;;;;;;7.80;4.50;;;;;;;1.99;78.52;99213.60;79477;1299;3011797;-65
2023/02/03 09:14:40;;;;;;;12.10;4.50;;;;;;;2.01;79.14;99209.55;78254;1301;3051083;-63
2023/02/03 09:17:08;;;;;;;8.60;5.70;;;;;;;1.92;78.74;99211.20;79576;1294;3013031;-68
2023/02/03 09:19:35;;;;;;;6.20;4.80;;;;;;;1.95;78.56;99206.80;79511;1294;3012910;-68
2023/02/03 09:22:03;;;;;;;7.80;4.70;;;;;;;2.17;77.88;99202.69;78435;1295;3050901;-68
2023/02/03 09:24:30;;;;;;;8.20;5.00;;;;;;;2.13;77.50;99201.79;79418;1294;3013489;-64
2023/02/03 09:26:57;;;;;;;7.40;4.70;;;;;;;2.08;78.21;99197.08;79327;1296;3011657;-64
2023/02/03 09:29:25;;;;;;;8.30;5.10;;;;;;;2.21;78.10;99196.19;79235;1299;3026989;-65
2023/02/03 09:31:52;;;;;;;9.30;4.00;;;;;;;2.30;78.27;99190.54;79457;1300;3013181;-65
2023/02/03 09:35:20;;;;;;;7.80;4.00;;;;;;;3.28;75.74;99183.16;80384;1300;3013024;-63
2023/02/03 09:37:47;;;;;;;8.90;3.90;;;;;;;3.68;73.21;99177.77;78955;1302;3013398;-61
2023/02/03 09:40:23;;;;;;;8.70;4.50;;;;;;;3.65;72.63;99176.81;78991;1305;3011605;-65
2023/02/03 09:43:09;;;;;;;7.40;4.30;;;;;;;3.29;73.78;99179.64;77835;1304;3052854;-63
2023/02/03 09:45:37;;;;;;;5.50;3.80;;;;;;;3.23;74.61;99173.11;77777;1302;3068986;-67
2023/02/03 09:48:12;;;;;;;8.60;4.30;;;;;;;3.18;75.25;99178.50;77677;1299;5153194;-66
2023/02/03 09:50:42;;;;;;;7.70;4.10;;;;;;;3.09;75.20;99175.33;78239;1301;3049902;-61
2023/02/03 09:53:24;;;;;;;5.70;3.80;;;;;;;3.01;75.82;99174.73;79264;1301;3013414;-64
2023/02/03 09:55:51;;;;;;;10.30;4.50;;;;;;;2.93;76.04;99172.94;78004;1301;3052697;-64
2023/02/03 09:58:20;;;;;;;8.10;5.10;;;;;;;3.08;76.63;99175.18;79196;1302;3018252;-64
2023/02/03 10:00:53;;;;;;;7.40;4.60;;;;;;;3.20;75.87;99170.64;79307;1298;3011823;-63
2023/02/03 10:03:30;;;;;;;8.00;4.60;;;;;;;3.28;75.86;99168.45;78029;1295;3055669;-64
2023/02/03 10:06:16;;;;;;;12.00;5.30;;;;;;;3.13;76.51;99170.33;78067;1300;3049866;-69
2023/02/03 10:09:00;;;;;;;8.90;4.20;;;;;;;3.25;76.60;99163.53;77963;1300;3053876;-67
2023/02/03 10:11:37;;;;;;;8.20;4.60;;;;;;;3.46;75.69;99154.80;78140;1301;3051362;-64
2023/02/03 10:14:26;;;;;;;11.50;5.00;;;;;;;3.58;75.46;99156.64;77960;1301;3053113;-64
2023/02/03 10:17:18;;;;;;;8.70;5.20;;;;;;;3.61;74.50;99157.58;78004;1301;3051462;-66
2023/02/03 10:20:05;;;;;;;7.10;3.70;;;;;;;3.71;74.65;99157.02;78018;1301;3069317;-62
2023/02/03 10:22:39;;;;;;;5.50;3.40;;;;;;;3.75;73.87;99154.61;77983;1300;3051200;-62
2023/02/03 10:25:14;;;;;;;5.50;3.10;;;;;;;3.81;73.49;99154.91;79430;1301;3012995;-61
2023/02/03 10:27:42;;;;;;;7.50;3.90;;;;;;;3.89;73.34;99153.04;77959;1301;3050104;-62
2023/02/03 10:30:18;;;;;;;7.20;3.80;;;;;;;3.96;73.63;99148.27;79137;1301;3012958;-66
2023/02/03 10:32:52;;;;;;;7.10;3.50;;;;;;;4.08;72.72;99137.44;78107;1301;3053130;-64
2023/02/03 10:35:20;;;;;;;5.50;3.10;;;;;;;4.11;72.59;99140.44;79195;1301;3011871;-64
2023/02/03 10:37:49;;;;;;;7.40;3.50;;;;;;;4.23;72.23;99137.17;77966;1301;3068552;-66
2023/02/03 10:40:16;;;;;;;5.20;2.80;;;;;;;4.03;72.46;99135.17;79145;1301;3013201;-66
2023/02/03 10:45:30;;;;;;;6.80;3.60;;;;;;;4.14;72.12;99131.13;77906;1303;3053639;-62
2023/02/03 10:47:57;;;;;;;5.90;3.20;;;;;;;4.23;72.39;99131.27;79104;1304;3020806;-65
2023/02/03 10:50:30;;;;;;;6.40;3.30;;;;;;;4.36;72.15;99128.00;79343;1302;3011719;-62
2023/02/03 10:53:17;;;;;;;5.20;3.10;;;;;;;4.39;71.50;99126.98;78050;1300;3068259;-64
2023/02/03 10:55:45;;;;;;;7.80;3.50;;;;;;;4.32;71.67;99129.86;78055;1301;3051593;-64
2023/02/03 10:58:18;;;;;;;4.80;2.90;;;;;;;4.43;71.83;99125.60;79193;1298;3013632;-65
2023/02/03 11:00:47;;;;;;;8.10;4.00;;;;;;;4.53;71.80;99121.77;77910;1301;3053514;-68
2023/02/03 11:03:27;;;;;;;9.30;4.10;;;;;;;4.59;71.76;99119.23;79294;1304;3016014;-64
2023/02/03 11:06:10;;;;;;;6.30;2.80;;;;;;;4.62;71.34;99124.30;77819;1299;3051716;-65
2023/02/03 11:08:39;;;;;;;7.10;4.10;;;;;;;4.61;71.20;99123.83;77941;1296;3071071;-65
2023/02/03 11:11:13;;;;;;;5.40;3.10;;;;;;;4.59;71.50;99129.98;79155;1298;3013174;-66
2023/02/03 11:13:41;;;;;;;6.50;3.20;;;;;;;4.52;71.10;99128.55;78075;1301;3056748;-64
2023/02/03 11:16:13;;;;;;;5.90;3.30;;;;;;;4.56;71.36;99124.20;79159;1299;3020527;-62
2023/02/03 11:18:51;;;;;;;8.70;4.10;;;;;;;4.65;71.22;99123.52;77900;1301;3050746;-65
2023/02/03 11:21:25;;;;;;;10.50;3.90;;;;;;;4.52;71.40;99121.62;78092;1301;3053390;-64
2023/02/03 11:23:54;;;;;;;4.20;2.80;;;;;;;4.54;71.40;99120.66;79189;1301;3011940;-64
2023/02/03 11:26:28;;;;;;;5.90;2.70;;;;;;;4.49;70.87;99119.64;78059;1301;3069302;-66
2023/02/03 11:28:55;;;;;;;;;;;;;;;4.48;71.08;99112.92;79308;1301;3011661;-67
2023/02/03 11:31:25;;;;;;;4.20;2.30;;;;;;;4.34;71.73;99109.52;78192;1300;3056660;-65
2023/02/03 11:33:56;;;;;;;4.60;2.60;;;;;;;4.35;71.43;99103.56;79422;1295;3013603;-67
2023/02/03 11:36:26;;;;;;;5.50;2.30;;;;;;;4.41;71.64;99101.10;77934;1301;3053973;-66
2023/02/03 11:39:14;;;;;;;5.10;2.80;;;;;;;4.60;71.23;99098.23;79344;1300;3013752;-66
2023/02/03 11:41:42;;;;;;;3.50;2.10;;;;;;;4.53;71.25;99104.89;77993;1301;3053307;-66
2023/02/03 11:44:25;;;;;;;4.00;2.30;;;;;;;4.50;70.31;99098.27;79244;1301;3012946;-62